createdAt,value
2023-04-21T00:00:07.974Z,100.00
2023-04-21T00:02:39.820Z,100.00
2023-04-21T00:05:14.145Z,100.00
2023-04-21T00:07:43.407Z,100.00
2023-04-21T00:10:11.787Z,100.00
2023-04-21T00:12:38.792Z,100.00
2023-04-21T00:15:06.423Z,100.00
2023-04-21T00:17:33.454Z,100.00
2023-04-21T00:20:00.473Z,100.00
2023-04-21T00:22:27.510Z,100.00
2023-04-21T00:24:54.366Z,100.00
2023-04-21T00:27:21.449Z,100.00
2023-04-21T00:29:48.459Z,100.00
2023-04-21T00:32:16.480Z,100.00
2023-04-21T00:34:43.393Z,100.00
2023-04-21T00:37:12.284Z,100.00
2023-04-21T00:39:40.041Z,100.00
2023-04-21T00:42:07.054Z,100.00
2023-04-21T00:44:35.715Z,100.00
2023-04-21T00:47:03.869Z,100.00
2023-04-21T00:49:31.033Z,100.00
2023-04-21T00:51:58.790Z,100.00
2023-04-21T00:54:28.733Z,100.00
2023-04-21T00:56:55.829Z,100.00
2023-04-21T00:59:22.770Z,100.00
2023-04-21T01:01:50.010Z,100.00
2023-04-21T01:04:17.083Z,100.00
2023-04-21T01:06:44.964Z,100.00
2023-04-21T01:09:14.966Z,100.00
2023-04-21T01:11:41.762Z,100.00
2023-04-21T01:14:08.852Z,100.00
2023-04-21T01:16:38.606Z,100.00
2023-04-21T01:19:06.186Z,100.00
2023-04-21T01:21:43.393Z,100.00
2023-04-21T01:24:11.882Z,100.00
2023-04-21T01:26:39.127Z,100.00
2023-04-21T01:29:06.291Z,100.00
2023-04-21T01:31:33.274Z,100.00
2023-04-21T01:34:04.516Z,100.00
2023-04-21T01:36:33.841Z,100.00
2023-04-21T01:39:00.789Z,100.00
2023-04-21T01:41:29.955Z,100.00
2023-04-21T01:43:57.002Z,100.00
2023-04-21T01:46:26.825Z,100.00
2023-04-21T01:48:53.772Z,100.00
2023-04-21T01:51:20.780Z,100.00
2023-04-21T01:53:47.963Z,100.00
2023-04-21T01:56:15.664Z,100.00
2023-04-21T01:58:42.842Z,100.00
2023-04-21T02:01:09.776Z,100.00
2023-04-21T02:03:36.860Z,100.00
2023-04-21T02:06:04.271Z,100.00
2023-04-21T02:08:31.289Z,100.00
2023-04-21T02:10:58.169Z,100.00
2023-04-21T02:13:25.121Z,100.00
2023-04-21T02:16:02.513Z,100.00
2023-04-21T02:18:40.174Z,100.00
2023-04-21T02:21:07.611Z,100.00
2023-04-21T02:23:34.576Z,100.00
2023-04-21T02:26:01.775Z,100.00
2023-04-21T02:28:28.788Z,100.00
2023-04-21T02:30:55.872Z,100.00
2023-04-21T02:33:22.939Z,100.00
2023-04-21T02:35:49.970Z,100.00
2023-04-21T02:38:17.277Z,100.00
2023-04-21T02:40:44.341Z,100.00
2023-04-21T02:43:14.570Z,100.00
2023-04-21T02:45:41.614Z,100.00
2023-04-21T02:48:08.628Z,100.00
2023-04-21T02:50:36.246Z,100.00
2023-04-21T02:53:03.150Z,100.00
2023-04-21T02:55:30.230Z,100.00
2023-04-21T02:57:57.262Z,100.00
2023-04-21T03:00:24.948Z,100.00
2023-04-21T03:02:53.813Z,100.00
2023-04-21T03:05:21.392Z,100.00
2023-04-21T03:07:48.262Z,100.00
2023-04-21T03:10:15.294Z,100.00
2023-04-21T03:12:42.183Z,100.00
2023-04-21T03:15:10.222Z,100.00
2023-04-21T03:17:37.506Z,100.00
2023-04-21T03:20:06.989Z,100.00
2023-04-21T03:22:37.203Z,100.00
2023-04-21T03:25:05.306Z,100.00
2023-04-21T03:27:33.749Z,100.00
2023-04-21T03:30:00.957Z,100.00
2023-04-21T03:32:27.925Z,100.00
2023-04-21T03:34:54.979Z,100.00
2023-04-21T03:37:21.974Z,100.00
2023-04-21T03:39:49.168Z,100.00
2023-04-21T03:42:16.293Z,100.00
2023-04-21T03:44:43.248Z,100.00
2023-04-21T03:47:10.185Z,100.00
2023-04-21T03:49:37.238Z,100.00
2023-04-21T03:52:04.364Z,100.00
2023-04-21T03:54:31.281Z,100.00
2023-04-21T03:56:58.340Z,100.00
2023-04-21T03:59:25.369Z,100.00
2023-04-21T04:01:52.298Z,100.00
2023-04-21T04:04:19.372Z,100.00
2023-04-21T04:06:47.200Z,100.00
2023-04-21T04:09:14.294Z,100.00
2023-04-21T04:11:41.229Z,100.00
2023-04-21T04:14:08.231Z,100.00
2023-04-21T04:16:36.118Z,100.00
2023-04-21T04:19:03.898Z,100.00
2023-04-21T04:21:32.744Z,100.00
2023-04-21T04:24:00.491Z,100.00
2023-04-21T04:26:27.473Z,100.00
2023-04-21T04:28:56.833Z,100.00
2023-04-21T04:31:36.618Z,100.00
2023-04-21T04:34:03.688Z,100.00
2023-04-21T04:36:31.152Z,100.00
2023-04-21T04:38:58.821Z,100.00
2023-04-21T04:41:25.739Z,100.00
2023-04-21T04:43:53.773Z,100.00
2023-04-21T04:46:20.884Z,100.00
2023-04-21T04:48:47.996Z,100.00
2023-04-21T04:51:14.956Z,100.00
2023-04-21T04:53:42.150Z,100.00
2023-04-21T04:56:09.140Z,100.00
2023-04-21T04:58:36.100Z,100.00
2023-04-21T05:01:16.272Z,100.00
2023-04-21T05:03:44.764Z,100.00
2023-04-21T05:06:12.343Z,100.00
2023-04-21T05:08:40.535Z,100.00
2023-04-21T05:11:08.489Z,100.00
2023-04-21T05:13:37.482Z,100.00
2023-04-21T05:16:06.699Z,100.00
2023-04-21T05:18:33.656Z,100.00
2023-04-21T05:21:00.638Z,100.00
2023-04-21T05:23:27.964Z,100.00
2023-04-21T05:25:54.892Z,100.00
2023-04-21T05:28:21.839Z,100.00
2023-04-21T05:30:49.093Z,100.00
2023-04-21T05:33:19.972Z,100.00
2023-04-21T05:35:47.049Z,100.00
2023-04-21T05:38:14.124Z,100.00
2023-04-21T05:40:41.200Z,100.00
2023-04-21T05:43:08.072Z,100.00
2023-04-21T05:45:39.753Z,100.00
2023-04-21T05:48:06.864Z,100.00
2023-04-21T05:50:35.749Z,100.00
2023-04-21T05:53:02.864Z,100.00
2023-04-21T05:55:29.787Z,100.00
2023-04-21T05:57:57.124Z,100.00
2023-04-21T06:00:24.087Z,100.00
2023-04-21T06:02:51.211Z,100.00
2023-04-21T06:05:18.631Z,100.00
2023-04-21T06:07:45.786Z,100.00
2023-04-21T06:10:14.215Z,100.00
2023-04-21T06:12:41.288Z,100.00
2023-04-21T06:15:08.959Z,100.00
2023-04-21T06:17:36.065Z,100.00
2023-04-21T06:20:04.346Z,100.00
2023-04-21T06:22:31.333Z,100.00
2023-04-21T06:24:58.740Z,100.00
2023-04-21T06:27:26.094Z,100.00
2023-04-21T06:29:56.568Z,100.00
2023-04-21T06:32:23.614Z,100.00
2023-04-21T06:34:50.831Z,100.00
2023-04-21T06:37:18.157Z,100.00
2023-04-21T06:39:45.165Z,100.00
2023-04-21T06:42:12.249Z,100.00
2023-04-21T06:44:43.041Z,100.00
2023-04-21T06:47:10.184Z,98.96
2023-04-21T06:49:37.728Z,98.39
2023-04-21T06:52:05.069Z,97.56
2023-04-21T06:54:32.026Z,93.12
2023-04-21T06:56:59.150Z,88.38
2023-04-21T06:59:26.243Z,89.80
2023-04-21T07:01:53.234Z,88.66
2023-04-21T07:04:20.235Z,85.96
2023-04-21T07:06:48.742Z,89.59
2023-04-21T07:09:15.720Z,89.02
2023-04-21T07:11:42.655Z,85.66
2023-04-21T07:14:09.743Z,87.05
2023-04-21T07:16:36.734Z,88.97
2023-04-21T07:19:03.674Z,89.20
2023-04-21T07:21:32.419Z,91.29
2023-04-21T07:23:59.368Z,80.78
2023-04-21T07:26:26.423Z,80.77
2023-04-21T07:28:53.714Z,82.08
2023-04-21T07:31:20.897Z,81.41
2023-04-21T07:33:47.877Z,85.01
2023-04-21T07:36:15.846Z,86.01
2023-04-21T07:38:43.603Z,83.41
2023-04-21T07:41:14.920Z,83.01
2023-04-21T07:43:41.913Z,83.18
2023-04-21T07:46:08.975Z,83.89
2023-04-21T07:48:36.220Z,87.80
2023-04-21T07:51:03.817Z,84.86
2023-04-21T07:53:31.263Z,81.02
2023-04-21T07:55:58.870Z,80.79
2023-04-21T07:58:25.998Z,80.63
2023-04-21T08:00:52.959Z,80.43
2023-04-21T08:03:22.832Z,79.08
2023-04-21T08:05:51.617Z,79.79
2023-04-21T08:08:20.657Z,82.25
2023-04-21T08:10:48.066Z,81.96
2023-04-21T08:13:15.177Z,84.58
2023-04-21T08:15:42.193Z,87.66
2023-04-21T08:18:09.745Z,82.73
2023-04-21T08:20:36.796Z,75.10
2023-04-21T08:23:03.938Z,73.50
2023-04-21T08:25:31.310Z,75.61
2023-04-21T08:27:58.431Z,74.52
2023-04-21T08:30:29.031Z,73.97
2023-04-21T08:32:56.277Z,74.71
2023-04-21T08:35:23.323Z,74.34
2023-04-21T08:37:51.579Z,74.20
2023-04-21T08:40:19.588Z,75.05
2023-04-21T08:42:48.790Z,74.21
2023-04-21T08:45:16.938Z,68.14
2023-04-21T08:47:44.265Z,73.26
2023-04-21T08:50:14.800Z,71.98
2023-04-21T08:52:41.904Z,68.90
2023-04-21T08:55:10.583Z,70.09
2023-04-21T08:57:37.577Z,66.92
2023-04-21T09:00:07.937Z,69.94
2023-04-21T09:03:00.791Z,66.63
2023-04-21T09:05:33.726Z,65.76
2023-04-21T09:08:19.015Z,69.54
2023-04-21T09:10:48.903Z,65.05
2023-04-21T09:13:17.988Z,63.97
2023-04-21T09:15:55.074Z,66.13
2023-04-21T09:18:24.569Z,61.94
2023-04-21T09:20:52.896Z,64.78
2023-04-21T09:23:21.744Z,68.77
2023-04-21T09:25:48.612Z,66.40
2023-04-21T09:28:15.651Z,65.25
2023-04-21T09:30:43.536Z,57.46
2023-04-21T09:33:28.763Z,58.46
2023-04-21T09:36:02.233Z,65.83
2023-04-21T09:38:29.155Z,57.92
2023-04-21T09:40:59.654Z,63.67
2023-04-21T09:43:26.765Z,67.88
2023-04-21T09:45:55.858Z,67.47
2023-04-21T09:48:26.295Z,66.34
2023-04-21T09:53:27.804Z,62.33
2023-04-21T09:55:57.226Z,54.11
2023-04-21T09:58:26.782Z,54.63
2023-04-21T10:00:57.357Z,57.12
2023-04-21T10:03:28.429Z,55.68
2023-04-21T10:05:55.872Z,53.84
2023-04-21T10:08:23.132Z,51.01
2023-04-21T10:10:50.925Z,50.90
2023-04-21T10:13:18.908Z,55.75
2023-04-21T10:15:46.012Z,53.69
2023-04-21T10:18:18.990Z,50.13
2023-04-21T10:20:57.534Z,50.25
2023-04-21T10:23:33.145Z,44.05
2023-04-21T10:26:03.566Z,45.27
2023-04-21T10:28:45.297Z,42.24
2023-04-21T10:31:30.493Z,43.11
2023-04-21T10:34:13.368Z,41.24
2023-04-21T10:36:49.058Z,40.83
2023-04-21T10:39:27.893Z,42.32
2023-04-21T10:41:59.198Z,44.86
2023-04-21T10:44:29.121Z,46.58
2023-04-21T10:46:59.372Z,46.28
2023-04-21T10:49:30.890Z,46.10
2023-04-21T10:52:00.918Z,42.61
2023-04-21T10:54:30.182Z,43.83
2023-04-21T10:56:58.966Z,45.06
2023-04-21T10:59:27.403Z,48.77
2023-04-21T11:01:55.344Z,49.85
2023-04-21T11:04:23.562Z,41.99
2023-04-21T11:07:18.874Z,46.87
2023-04-21T11:09:48.275Z,48.55
2023-04-21T11:12:20.438Z,51.10
2023-04-21T11:14:48.414Z,50.09
2023-04-21T11:17:20.573Z,49.93
2023-04-21T11:19:54.423Z,46.69
2023-04-21T11:22:24.661Z,45.36
2023-04-21T11:24:55.205Z,47.39
2023-04-21T11:27:22.838Z,43.75
2023-04-21T11:29:50.975Z,42.88
2023-04-21T11:32:18.745Z,46.09
2023-04-21T11:34:46.035Z,45.79
2023-04-21T11:37:31.062Z,44.11
2023-04-21T11:40:01.451Z,45.31
2023-04-21T11:42:29.092Z,47.12
2023-04-21T11:44:57.443Z,47.06
2023-04-21T11:47:26.838Z,47.48
2023-04-21T11:49:59.078Z,47.76
2023-04-21T11:52:33.446Z,48.50
2023-04-21T11:55:12.317Z,47.35
2023-04-21T11:57:41.100Z,45.10
2023-04-21T12:00:14.829Z,44.54
2023-04-21T12:02:43.416Z,45.48
2023-04-21T12:05:12.759Z,44.12
2023-04-21T12:07:44.929Z,43.87
2023-04-21T12:10:14.488Z,43.03
2023-04-21T12:12:42.834Z,43.58
2023-04-21T12:15:18.008Z,43.90
2023-04-21T12:17:45.482Z,44.42
2023-04-21T12:20:13.816Z,44.95
2023-04-21T12:22:40.916Z,45.14
2023-04-21T12:25:09.218Z,46.39
2023-04-21T12:27:36.408Z,45.81
2023-04-21T12:30:04.383Z,46.65
2023-04-21T12:32:31.488Z,46.97
2023-04-21T12:34:58.486Z,46.44
2023-04-21T12:37:26.158Z,45.57
2023-04-21T12:39:53.044Z,45.25
2023-04-21T12:42:20.041Z,44.59
2023-04-21T12:44:47.366Z,44.83
2023-04-21T12:47:14.565Z,46.70
2023-04-21T12:49:41.916Z,47.10
2023-04-21T12:52:09.234Z,45.28
2023-04-21T12:54:36.352Z,45.06
2023-04-21T12:57:03.310Z,43.89
2023-04-21T12:59:30.523Z,43.29
2023-04-21T13:01:57.806Z,43.62
2023-04-21T13:04:25.179Z,42.04
2023-04-21T13:06:52.721Z,42.13
2023-04-21T13:09:19.652Z,42.22
2023-04-21T13:11:46.674Z,43.35
2023-04-21T13:14:13.984Z,42.14
2023-04-21T13:16:41.248Z,42.27
2023-04-21T13:19:08.190Z,43.48
2023-04-21T13:21:35.217Z,43.88
2023-04-21T13:24:03.125Z,42.62
2023-04-21T13:26:33.787Z,40.93
2023-04-21T13:29:02.263Z,40.69
2023-04-21T13:31:29.314Z,41.80
2023-04-21T13:33:57.074Z,40.76
2023-04-21T13:36:24.080Z,39.81
2023-04-21T13:38:54.144Z,40.75
2023-04-21T13:41:21.175Z,42.42
2023-04-21T13:43:48.405Z,41.97
2023-04-21T13:46:15.465Z,42.73
2023-04-21T13:48:42.565Z,42.30
2023-04-21T13:51:09.783Z,42.37
2023-04-21T13:53:36.961Z,43.33
2023-04-21T13:56:04.180Z,43.05
2023-04-21T13:58:31.244Z,42.24
2023-04-21T14:00:58.209Z,41.60
2023-04-21T14:03:25.385Z,40.84
2023-04-21T14:05:52.458Z,40.43
2023-04-21T14:08:19.449Z,41.32
2023-04-21T14:10:46.468Z,42.01
2023-04-21T14:13:23.309Z,41.64
2023-04-21T14:16:00.551Z,42.78
2023-04-21T14:18:27.763Z,44.05
2023-04-21T14:20:54.705Z,44.09
2023-04-21T14:23:21.655Z,43.22
2023-04-21T14:25:48.716Z,43.46
2023-04-21T14:28:15.891Z,43.47
2023-04-21T14:30:43.442Z,46.41
2023-04-21T14:33:10.607Z,45.43
2023-04-21T14:35:38.031Z,44.66
2023-04-21T14:38:05.142Z,44.03
2023-04-21T14:40:32.291Z,44.83
2023-04-21T14:42:59.312Z,45.03
2023-04-21T14:45:26.431Z,44.86
2023-04-21T14:47:53.716Z,46.15
2023-04-21T14:50:20.750Z,45.23
2023-04-21T14:52:49.767Z,45.15
2023-04-21T14:55:17.488Z,43.89
2023-04-21T14:57:45.617Z,43.99
2023-04-21T15:00:13.305Z,43.87
2023-04-21T15:02:40.565Z,44.20
2023-04-21T15:05:08.904Z,43.75
2023-04-21T15:07:36.342Z,44.51
2023-04-21T15:10:03.624Z,43.36
2023-04-21T15:12:30.701Z,43.36
2023-04-21T15:14:57.723Z,42.33
2023-04-21T15:17:25.826Z,43.20
2023-04-21T15:19:52.864Z,44.28
2023-04-21T15:22:19.864Z,44.03
2023-04-21T15:24:47.151Z,44.40
2023-04-21T15:27:14.640Z,43.99
2023-04-21T15:29:41.553Z,44.25
2023-04-21T15:32:11.472Z,44.01
2023-04-21T15:34:38.562Z,43.61
2023-04-21T15:37:05.621Z,44.41
2023-04-21T15:39:32.975Z,44.73
2023-04-21T15:42:00.033Z,45.53
2023-04-21T15:44:27.292Z,45.69
2023-04-21T15:46:54.390Z,46.12
2023-04-21T15:49:23.751Z,45.71
2023-04-21T15:51:52.896Z,46.88
2023-04-21T15:54:19.827Z,45.77
2023-04-21T15:56:46.896Z,45.06
2023-04-21T15:59:13.929Z,45.17
2023-04-21T16:01:42.367Z,45.44
2023-04-21T16:04:09.536Z,46.81
2023-04-21T16:06:36.844Z,46.33
2023-04-21T16:09:04.008Z,45.80
2023-04-21T16:11:31.057Z,46.09
2023-04-21T16:13:58.196Z,45.91
2023-04-21T16:16:25.443Z,45.70
2023-04-21T16:18:52.587Z,46.59
2023-04-21T16:21:20.841Z,47.05
2023-04-21T16:23:48.710Z,46.61
2023-04-21T16:26:15.980Z,46.86
2023-04-21T16:28:43.985Z,47.08
2023-04-21T16:31:11.098Z,48.08
2023-04-21T16:33:38.329Z,48.12
2023-04-21T16:36:05.929Z,47.18
2023-04-21T16:38:33.005Z,47.45
2023-04-21T16:41:00.065Z,48.72
2023-04-21T16:43:27.363Z,49.03
2023-04-21T16:45:54.899Z,50.24
2023-04-21T16:48:21.938Z,51.08
2023-04-21T16:50:49.044Z,51.65
2023-04-21T16:53:16.098Z,49.84
2023-04-21T16:55:43.206Z,48.39
2023-04-21T16:58:10.173Z,48.54
2023-04-21T17:00:38.412Z,48.28
2023-04-21T17:03:05.497Z,48.04
2023-04-21T17:05:32.562Z,46.93
2023-04-21T17:07:59.626Z,47.80
2023-04-21T17:10:27.340Z,48.34
2023-04-21T17:12:54.279Z,48.23
2023-04-21T17:15:21.279Z,48.75
2023-04-21T17:17:49.718Z,48.83
2023-04-21T17:20:16.887Z,49.51
2023-04-21T17:22:44.336Z,50.17
2023-04-21T17:25:12.115Z,50.45
2023-04-21T17:27:41.115Z,50.48
2023-04-21T17:30:09.656Z,51.31
2023-04-21T17:32:37.965Z,52.72
2023-04-21T17:35:06.029Z,52.03
2023-04-21T17:37:34.363Z,52.58
2023-04-21T17:40:02.994Z,51.65
2023-04-21T17:42:30.672Z,53.40
2023-04-21T17:44:57.734Z,54.30
2023-04-21T17:47:24.822Z,54.82
2023-04-21T17:49:51.884Z,56.03
2023-04-21T17:52:19.010Z,60.30
2023-04-21T17:54:46.336Z,64.59
2023-04-21T17:57:13.482Z,69.99
2023-04-21T17:59:41.237Z,72.27
2023-04-21T18:02:11.439Z,74.78
2023-04-21T18:04:38.944Z,77.58
2023-04-21T18:07:06.754Z,80.54
2023-04-21T18:09:33.805Z,81.71
2023-04-21T18:12:00.736Z,82.79
2023-04-21T18:14:28.246Z,84.67
2023-04-21T18:16:55.264Z,85.91
2023-04-21T18:19:22.588Z,87.65
2023-04-21T18:21:49.632Z,87.12
2023-04-21T18:24:16.741Z,86.87
2023-04-21T18:26:43.800Z,88.00
2023-04-21T18:29:10.985Z,88.16
2023-04-21T18:31:38.179Z,88.63
2023-04-21T18:34:06.279Z,89.26
2023-04-21T18:36:34.424Z,90.97
2023-04-21T18:39:02.410Z,92.63
2023-04-21T18:41:29.566Z,94.79
2023-04-21T18:43:56.621Z,97.75
2023-04-21T18:46:23.642Z,99.07
2023-04-21T18:48:50.740Z,98.76
2023-04-21T18:51:17.796Z,99.79
2023-04-21T18:53:46.476Z,100.00
2023-04-21T18:56:13.534Z,100.00
2023-04-21T18:58:40.672Z,100.00
2023-04-21T19:01:08.252Z,99.03
2023-04-21T19:03:35.465Z,95.11
2023-04-21T19:06:02.605Z,92.93
2023-04-21T19:08:41.529Z,93.72
2023-04-21T19:11:11.966Z,93.99
2023-04-21T19:13:39.449Z,94.07
2023-04-21T19:16:08.717Z,93.20
2023-04-21T19:18:35.850Z,93.16
2023-04-21T19:21:04.856Z,92.78
2023-04-21T19:23:31.797Z,93.75
2023-04-21T19:26:00.198Z,92.19
2023-04-21T19:28:27.246Z,92.68
2023-04-21T19:30:54.179Z,92.11
2023-04-21T19:33:22.287Z,91.35
2023-04-21T19:35:49.410Z,91.83
2023-04-21T19:38:16.446Z,94.45
2023-04-21T19:40:45.195Z,96.94
2023-04-21T19:43:13.056Z,96.94
2023-04-21T19:45:40.068Z,95.34
2023-04-21T19:48:07.894Z,94.37
2023-04-21T19:50:35.969Z,94.12
2023-04-21T19:53:02.961Z,95.42
2023-04-21T19:55:30.639Z,95.65
2023-04-21T19:58:01.064Z,95.83
2023-04-21T20:00:28.089Z,96.25
2023-04-21T20:02:56.509Z,97.13
2023-04-21T20:05:23.612Z,99.88
2023-04-21T20:07:50.772Z,100.00
2023-04-21T20:10:17.955Z,100.00
2023-04-21T20:12:44.880Z,100.00
2023-04-21T20:15:13.101Z,100.00
2023-04-21T20:17:40.353Z,100.00
2023-04-21T20:20:09.430Z,100.00
2023-04-21T20:22:36.566Z,100.00
2023-04-21T20:25:06.256Z,100.00
2023-04-21T20:27:33.730Z,100.00
2023-04-21T20:30:02.290Z,100.00
2023-04-21T20:32:29.661Z,100.00
2023-04-21T20:34:56.676Z,100.00
2023-04-21T20:37:23.707Z,100.00
2023-04-21T20:39:50.812Z,100.00
2023-04-21T20:42:19.463Z,100.00
2023-04-21T20:44:46.497Z,100.00
2023-04-21T20:47:13.806Z,100.00
2023-04-21T20:49:41.117Z,100.00
2023-04-21T20:52:09.080Z,100.00
2023-04-21T20:54:36.240Z,100.00
2023-04-21T20:57:03.214Z,100.00
2023-04-21T20:59:30.118Z,100.00
2023-04-21T21:01:57.111Z,100.00
2023-04-21T21:04:24.309Z,100.00
2023-04-21T21:06:51.369Z,100.00
2023-04-21T21:09:19.244Z,100.00
2023-04-21T21:11:46.328Z,100.00
2023-04-21T21:14:13.577Z,100.00
2023-04-21T21:16:40.844Z,100.00
2023-04-21T21:19:12.816Z,100.00
2023-04-21T21:21:39.759Z,100.00
2023-04-21T21:24:07.147Z,100.00
2023-04-21T21:26:35.149Z,100.00
2023-04-21T21:29:02.059Z,100.00
2023-04-21T21:31:29.710Z,100.00
2023-04-21T21:33:58.353Z,100.00
2023-04-21T21:36:28.359Z,100.00
2023-04-21T21:38:55.789Z,100.00
2023-04-21T21:41:23.420Z,100.00
2023-04-21T21:43:50.409Z,100.00
2023-04-21T21:46:18.828Z,100.00
2023-04-21T21:48:45.937Z,100.00
2023-04-21T21:51:12.800Z,100.00
2023-04-21T21:53:39.784Z,100.00
2023-04-21T21:56:06.827Z,100.00
2023-04-21T21:58:33.814Z,100.00
2023-04-21T22:01:00.827Z,100.00
2023-04-21T22:03:28.256Z,100.00
2023-04-21T22:05:55.328Z,100.00
2023-04-21T22:08:22.336Z,100.00
2023-04-21T22:10:51.354Z,100.00
2023-04-21T22:13:18.367Z,100.00
2023-04-21T22:15:45.352Z,100.00
2023-04-21T22:18:12.399Z,100.00
2023-04-21T22:20:39.303Z,100.00
2023-04-21T22:23:06.376Z,100.00
2023-04-21T22:25:33.366Z,100.00
2023-04-21T22:28:00.491Z,100.00
2023-04-21T22:30:27.473Z,100.00
2023-04-21T22:32:55.524Z,100.00
2023-04-21T22:35:22.635Z,100.00
2023-04-21T22:37:49.814Z,100.00
2023-04-21T22:40:19.553Z,100.00
2023-04-21T22:42:46.692Z,100.00
2023-04-21T22:45:13.679Z,100.00
2023-04-21T22:47:40.613Z,100.00
2023-04-21T22:50:09.552Z,100.00
2023-04-21T22:52:36.616Z,100.00
2023-04-21T22:55:05.373Z,100.00
2023-04-21T22:57:32.900Z,100.00
2023-04-21T22:59:59.880Z,100.00
2023-04-21T23:02:27.258Z,100.00
2023-04-21T23:04:54.550Z,100.00
2023-04-21T23:07:22.212Z,100.00
2023-04-21T23:09:49.148Z,100.00
2023-04-21T23:12:16.449Z,100.00
2023-04-21T23:14:43.743Z,100.00
2023-04-21T23:17:10.771Z,100.00
2023-04-21T23:19:37.934Z,100.00
2023-04-21T23:22:05.367Z,100.00
2023-04-21T23:24:32.316Z,100.00
2023-04-21T23:26:59.254Z,100.00
2023-04-21T23:29:26.191Z,100.00
2023-04-21T23:31:53.169Z,100.00
2023-04-21T23:34:20.218Z,100.00
2023-04-21T23:36:47.266Z,100.00
2023-04-21T23:39:14.221Z,100.00
2023-04-21T23:41:41.130Z,100.00
2023-04-21T23:44:08.078Z,100.00
2023-04-21T23:46:35.164Z,100.00
2023-04-21T23:49:02.161Z,100.00
2023-04-21T23:51:29.326Z,100.00
2023-04-21T23:53:56.489Z,100.00
2023-04-21T23:56:23.414Z,100.00
2023-04-21T23:58:50.347Z,100.00
